Time;durP1;ratioP1;P1;durP2;ratioP2;P2;SDS_P1;SDS_P2;PMS_P1;PMS_P2;Temp;Humidity;BMP_temperature;BMP_pressure;BME280_temperature;BME280_humidity;BME280_pressure;Samples;Min_cycle;Max_cycle;Signal;HPM_P1;HPM_P2
2020/12/07 00:01:31;;;;;;;;;;;;;;;29.01;30.92;101122.25;5057497;28;875;-27
2020/12/07 00:03:56;;;;;;;;;;;;;;;28.97;30.86;101110.94;5057735;28;1980;-30
2020/12/07 00:06:22;;;;;;;;;;;;;;;29.23;30.74;101117.72;5057683;28;792;-37
2020/12/07 00:08:47;;;;;;;;;;;;;;;29.36;30.02;101111.66;5057306;28;832;-31
2020/12/07 00:11:13;;;;;;;;;;;;;;;29.09;30.37;101116.72;5060447;28;1138;-29
2020/12/07 00:13:38;;;;;;;;;;;;;;;29.15;30.31;101105.13;5057596;28;820;-32
2020/12/07 00:16:06;;;;;;;;;;;;;;;29.00;31.20;101115.13;5057030;28;903;-34
2020/12/07 00:18:31;;;;;;;;;;;;;;;28.96;31.38;101112.78;5057733;28;1073;-28
2020/12/07 00:20:57;;;;;;;;;;;;;;;29.15;29.36;101115.13;5057446;28;847;-29
2020/12/07 00:23:22;;;;;;;;;;;;;;;28.52;26.22;101109.00;5056942;28;803;-28
2020/12/07 00:25:47;;;;;;;;;;;;;;;28.28;27.39;101118.16;5056714;28;1964;-29
2020/12/07 00:28:12;;;;;;;;;;;;;;;28.24;28.16;101123.09;5057297;28;780;-27
2020/12/07 00:30:38;;;;;;;;;;;;;;;28.81;27.17;101122.78;5056495;28;1057;-31
2020/12/07 00:33:03;;;;;;;;;;;;;;;28.99;27.26;101122.44;5057321;28;756;-27
2020/12/07 00:35:28;;;;;;;;;;;;;;;28.47;27.09;101122.25;5057282;28;858;-28
2020/12/07 00:37:53;;;;;;;;;;;;;;;28.17;28.05;101122.13;5056622;28;811;-26
2020/12/07 00:40:19;;;;;;;;;;;;;;;28.07;28.45;101130.50;5056860;28;995;-28
2020/12/07 00:42:44;;;;;;;;;;;;;;;28.71;27.78;101144.69;5057285;28;799;-29
2020/12/07 00:45:09;;;;;;;;;;;;;;;28.79;27.05;101155.44;5056563;28;1898;-28
2020/12/07 00:47:35;;;;;;;;;;;;;;;28.37;26.63;101163.09;5057010;28;784;-29
2020/12/07 00:50:00;;;;;;;;;;;;;;;27.82;28.27;101174.75;5056861;28;780;-28
2020/12/07 00:52:25;;;;;;;;;;;;;;;27.80;27.91;101155.16;5056458;28;779;-31
2020/12/07 00:54:50;;;;;;;;;;;;;;;28.43;27.26;101166.91;5056563;28;907;-38
2020/12/07 00:57:16;;;;;;;;;;;;;;;28.40;26.71;101165.44;5056927;28;982;-29
2020/12/07 00:59:41;;;;;;;;;;;;;;;27.90;27.68;101164.91;5056383;28;756;-39
2020/12/07 01:02:06;;;;;;;;;;;;;;;27.67;27.83;101162.97;5056728;28;835;-29
2020/12/07 01:04:32;;;;;;;;;;;;;;;28.37;27.04;101160.38;5056360;28;1902;-31
2020/12/07 01:06:57;;;;;;;;;;;;;;;28.36;26.84;101159.53;5056177;28;780;-37
2020/12/07 01:09:22;;;;;;;;;;;;;;;28.16;26.55;101159.16;5056588;28;894;-32
2020/12/07 01:11:55;;;;;;;;;;;;;;;27.63;27.66;101162.47;5055991;28;955;-29
2020/12/07 01:14:21;;;;;;;;;;;;;;;27.61;27.76;101161.84;5056163;28;807;-36
2020/12/07 01:16:46;;;;;;;;;;;;;;;28.23;26.94;101154.72;5056504;28;841;-29
2020/12/07 01:19:11;;;;;;;;;;;;;;;27.99;26.94;101140.34;5056341;28;1303;-30
2020/12/07 01:21:37;;;;;;;;;;;;;;;27.66;27.69;101145.09;5055624;28;811;-30
2020/12/07 01:24:02;;;;;;;;;;;;;;;27.50;27.62;101149.53;5056041;28;1914;-39
2020/12/07 01:26:30;;;;;;;;;;;;;;;28.30;26.78;101146.72;5055986;28;1119;-32
2020/12/07 01:28:55;;;;;;;;;;;;;;;28.32;26.26;101144.66;5056110;28;915;-31
2020/12/07 01:31:20;;;;;;;;;;;;;;;28.21;26.48;101145.91;5056394;28;774;-31
2020/12/07 01:33:46;;;;;;;;;;;;;;;27.60;27.57;101149.31;5056228;28;875;-31
2020/12/07 01:36:11;;;;;;;;;;;;;;;27.40;27.80;101144.34;5056025;28;808;-29
2020/12/07 01:38:37;;;;;;;;;;;;;;;28.03;27.22;101137.28;5056324;28;776;-28
2020/12/07 01:41:02;;;;;;;;;;;;;;;28.06;26.87;101135.03;5056004;28;951;-31
2020/12/07 01:43:27;;;;;;;;;;;;;;;27.67;27.58;101130.53;5055985;28;850;-31
2020/12/07 01:45:52;;;;;;;;;;;;;;;27.29;27.95;101129.38;5056201;28;1975;-29
2020/12/07 01:48:18;;;;;;;;;;;;;;;27.85;27.03;101114.94;5056133;28;764;-29
2020/12/07 01:50:43;;;;;;;;;;;;;;;28.13;26.79;101120.81;5057988;28;1152;-38
2020/12/07 01:53:09;;;;;;;;;;;;;;;27.62;27.33;101117.56;5056178;28;768;-32
2020/12/07 01:55:34;;;;;;;;;;;;;;;27.64;27.27;101123.66;5055772;28;927;-32
2020/12/07 01:57:59;;;;;;;;;;;;;;;27.84;27.05;101113.22;5055736;28;860;-35
2020/12/07 02:00:25;;;;;;;;;;;;;;;28.32;26.37;101104.09;5056193;28;763;-31
2020/12/07 02:02:51;;;;;;;;;;;;;;;28.11;26.89;101108.31;5056021;28;752;-30
2020/12/07 02:05:16;;;;;;;;;;;;;;;27.58;27.41;101110.81;5055841;28;1973;-34
2020/12/07 02:07:41;;;;;;;;;;;;;;;27.45;27.16;101116.81;5056100;28;764;-31
2020/12/07 02:10:07;;;;;;;;;;;;;;;27.96;27.01;101118.25;5055570;28;951;-33
2020/12/07 02:12:32;;;;;;;;;;;;;;;28.22;26.46;101128.69;5056005;28;835;-40
2020/12/07 02:14:57;;;;;;;;;;;;;;;27.74;26.87;101116.16;5056050;28;795;-39
2020/12/07 02:17:23;;;;;;;;;;;;;;;27.47;27.48;101120.19;5055213;28;1222;-29
2020/12/07 02:19:48;;;;;;;;;;;;;;;27.51;27.41;101118.78;5055743;28;780;-29
2020/12/07 02:22:14;;;;;;;;;;;;;;;28.21;26.40;101120.75;5055940;28;784;-30
2020/12/07 02:24:39;;;;;;;;;;;;;;;28.07;26.32;101114.25;5055579;28;1914;-32
2020/12/07 02:27:04;;;;;;;;;;;;;;;27.61;27.11;101126.69;5055648;28;963;-29
2020/12/07 02:29:30;;;;;;;;;;;;;;;27.56;27.18;101123.69;5056023;28;792;-30
2020/12/07 02:32:14;;;;;;;;;;;;;;;27.90;26.94;101122.50;5055598;28;802;-31
2020/12/07 02:34:39;;;;;;;;;;;;;;;28.13;26.58;101120.81;5057224;28;809;-39
2020/12/07 02:37:05;;;;;;;;;;;;;;;27.88;26.88;101121.81;5059403;28;822;-32
2020/12/07 02:39:30;;;;;;;;;;;;;;;27.58;27.00;101121.63;5058975;28;891;-31
2020/12/07 02:41:55;;;;;;;;;;;;;;;27.32;27.53;101114.66;5058887;28;995;-31
2020/12/07 02:44:21;;;;;;;;;;;;;;;28.34;26.44;101107.47;5059543;28;1906;-33
2020/12/07 02:46:46;;;;;;;;;;;;;;;28.86;26.18;101114.94;5059317;28;767;-29
2020/12/07 02:49:11;;;;;;;;;;;;;;;28.24;26.47;101110.41;5059186;28;791;-31
2020/12/07 02:51:36;;;;;;;;;;;;;;;27.63;27.17;101116.53;5059253;28;978;-31
2020/12/07 02:54:02;;;;;;;;;;;;;;;28.19;26.83;101118.25;5058884;28;815;-31
2020/12/07 02:56:27;;;;;;;;;;;;;;;28.43;26.85;101110.94;5058779;28;963;-37
2020/12/07 02:58:52;;;;;;;;;;;;;;;27.99;26.60;101109.75;5058973;28;848;-33
2020/12/07 03:01:18;;;;;;;;;;;;;;;27.66;27.43;101099.13;5058791;28;755;-32
2020/12/07 03:03:43;;;;;;;;;;;;;;;27.46;27.43;101105.81;5058934;28;883;-31
2020/12/07 03:06:08;;;;;;;;;;;;;;;28.11;27.18;101093.97;5058531;28;1981;-32
2020/12/07 03:08:33;;;;;;;;;;;;;;;28.21;26.57;101091.00;5058636;28;832;-32
2020/12/07 03:10:59;;;;;;;;;;;;;;;27.69;27.21;101096.97;5058617;28;943;-29
2020/12/07 03:13:24;;;;;;;;;;;;;;;27.39;27.45;101100.28;5058849;28;779;-32
2020/12/07 03:15:49;;;;;;;;;;;;;;;28.01;27.63;101090.66;5058534;28;768;-34
2020/12/07 03:18:14;;;;;;;;;;;;;;;28.17;27.15;101097.78;5058685;28;1198;-30
2020/12/07 03:20:40;;;;;;;;;;;;;;;27.61;27.33;101103.19;5058254;28;890;-31
2020/12/07 03:23:05;;;;;;;;;;;;;;;27.50;27.66;101103.59;5058732;28;783;-31
2020/12/07 03:25:30;;;;;;;;;;;;;;;27.70;27.87;101095.94;5058086;28;1906;-33
2020/12/07 03:27:55;;;;;;;;;;;;;;;28.04;27.36;101107.38;5058148;28;800;-29
2020/12/07 03:30:21;;;;;;;;;;;;;;;27.90;27.13;101103.56;5058106;28;728;-33
2020/12/07 03:32:46;;;;;;;;;;;;;;;27.56;27.36;101112.88;5058409;28;800;-31
2020/12/07 03:35:11;;;;;;;;;;;;;;;27.21;28.03;101108.63;5058024;28;760;-32
2020/12/07 03:37:37;;;;;;;;;;;;;;;28.06;27.53;101109.88;5058199;28;824;-31
2020/12/07 03:40:02;;;;;;;;;;;;;;;28.01;27.29;101101.47;5057998;28;944;-29
2020/12/07 03:42:27;;;;;;;;;;;;;;;27.54;27.46;101107.66;5058207;28;788;-31
2020/12/07 03:44:53;;;;;;;;;;;;;;;27.46;27.68;101099.59;5057623;28;1894;-31
2020/12/07 03:47:18;;;;;;;;;;;;;;;27.53;28.00;101094.31;5058124;28;756;-29
2020/12/07 03:49:48;;;;;;;;;;;;;;;27.96;27.16;101099.31;5057778;28;800;-32
2020/12/07 03:52:13;;;;;;;;;;;;;;;27.68;27.47;101097.97;5057855;28;741;-29
2020/12/07 03:54:38;;;;;;;;;;;;;;;27.54;27.51;101094.16;5058003;28;868;-28
2020/12/07 03:57:03;;;;;;;;;;;;;;;27.49;28.21;101100.06;5057363;28;995;-28
2020/12/07 03:59:29;;;;;;;;;;;;;;;28.08;27.53;101100.56;5057836;28;795;-31
2020/12/07 04:01:54;;;;;;;;;;;;;;;27.98;27.06;101100.81;5057940;28;816;-31
2020/12/07 04:04:24;;;;;;;;;;;;;;;27.50;28.13;101096.34;5057340;28;1902;-33
2020/12/07 04:06:50;;;;;;;;;;;;;;;27.25;27.81;101098.31;5057270;28;869;-30
2020/12/07 04:09:16;;;;;;;;;;;;;;;27.92;27.65;101093.41;5057683;28;768;-33
2020/12/07 04:11:41;;;;;;;;;;;;;;;27.84;27.92;101093.47;5057054;28;1019;-28
2020/12/07 04:14:06;;;;;;;;;;;;;;;27.28;27.98;101084.47;5057515;28;744;-33
2020/12/07 04:16:32;;;;;;;;;;;;;;;27.08;25.68;101098.38;5057536;28;807;-33
2020/12/07 04:18:57;;;;;;;;;;;;;;;27.60;27.24;101082.63;5056994;28;1218;-40
2020/12/07 04:21:22;;;;;;;;;;;;;;;27.84;25.90;101079.97;5057414;28;748;-33
2020/12/07 04:23:47;;;;;;;;;;;;;;;27.71;24.98;101084.09;5057314;28;1971;-33
2020/12/07 04:26:13;;;;;;;;;;;;;;;26.96;25.31;101089.78;5056868;28;1022;-33
2020/12/07 04:28:38;;;;;;;;;;;;;;;26.75;25.30;101072.31;5057309;28;799;-33
2020/12/07 04:31:03;;;;;;;;;;;;;;;27.06;25.98;101084.22;5057436;28;780;-41
2020/12/07 04:33:29;;;;;;;;;;;;;;;27.13;24.71;101087.06;5056809;28;899;-28
2020/12/07 04:35:54;;;;;;;;;;;;;;;26.79;25.55;101080.91;5057062;28;818;-43
2020/12/07 04:38:19;;;;;;;;;;;;;;;26.67;26.08;101079.59;5057249;28;840;-30
2020/12/07 04:40:44;;;;;;;;;;;;;;;27.48;25.26;101078.63;5056679;28;951;-33
2020/12/07 04:43:10;;;;;;;;;;;;;;;26.95;26.08;101079.16;5056971;28;798;-31
2020/12/07 04:45:35;;;;;;;;;;;;;;;26.70;26.28;101073.84;5039238;28;1967;-41
2020/12/07 04:48:00;;;;;;;;;;;;;;;26.39;26.41;101061.94;5056548;28;784;-38
2020/12/07 04:50:29;;;;;;;;;;;;;;;25.37;25.39;101063.78;5057194;28;799;-42
2020/12/07 04:52:54;;;;;;;;;;;;;;;24.75;24.20;101062.97;5039555;28;859;-46
2020/12/07 04:55:20;;;;;;;;;;;;;;;24.63;24.29;101065.09;5055423;28;885;-36
2020/12/07 04:57:45;;;;;;;;;;;;;;;24.39;23.71;101056.69;5055952;28;832;-45
2020/12/07 05:00:10;;;;;;;;;;;;;;;26.07;23.81;101064.44;5038777;28;1291;-32
2020/12/07 05:02:36;;;;;;;;;;;;;;;26.93;23.00;101067.69;5056166;28;848;-34
2020/12/07 05:05:02;;;;;;;;;;;;;;;27.58;22.65;101064.88;5056835;28;1907;-33
2020/12/07 05:07:27;;;;;;;;;;;;;;;27.08;23.31;101059.75;5056160;28;835;-34
2020/12/07 05:09:55;;;;;;;;;;;;;;;27.34;23.60;101059.44;5038615;28;1053;-30
2020/12/07 05:12:22;;;;;;;;;;;;;;;27.81;23.46;101056.81;5056562;28;816;-33
2020/12/07 05:14:48;;;;;;;;;;;;;;;27.88;23.24;101062.34;5056311;28;788;-41
2020/12/07 05:17:16;;;;;;;;;;;;;;;27.83;23.79;101054.78;5056681;28;1105;-41
2020/12/07 05:19:44;;;;;;;;;;;;;;;27.93;23.61;101056.38;5055948;28;816;-31
2020/12/07 05:22:13;;;;;;;;;;;;;;;28.03;23.64;101048.88;5055995;28;1553;-34
2020/12/07 05:24:38;;;;;;;;;;;;;;;27.89;24.01;101038.88;5056459;28;1918;-41
2020/12/07 05:27:04;;;;;;;;;;;;;;;28.05;23.96;101043.28;5055875;28;998;-37
2020/12/07 05:29:33;;;;;;;;;;;;;;;27.75;24.31;101044.88;5056341;28;760;-28
2020/12/07 05:31:58;;;;;;;;;;;;;;;27.66;24.50;101040.50;5055804;28;491;-40
2020/12/07 05:34:24;;;;;;;;;;;;;;;28.17;23.82;101033.72;5056020;28;761;-40
2020/12/07 05:36:53;;;;;;;;;;;;;;;28.33;23.66;101038.16;5056164;28;734;-37
2020/12/07 05:39:18;;;;;;;;;;;;;;;28.29;23.89;101036.81;5056452;28;764;-42
2020/12/07 05:41:44;;;;;;;;;;;;;;;28.38;23.88;101036.78;5037574;28;996;-40
2020/12/07 05:44:09;;;;;;;;;;;;;;;28.30;24.16;101035.78;5038630;28;1910;-42
2020/12/07 05:46:34;;;;;;;;;;;;;;;27.93;24.28;101022.09;5056240;28;836;-41
2020/12/07 05:48:59;;;;;;;;;;;;;;;27.71;24.95;101021.91;5055630;28;724;-30
2020/12/07 05:51:25;;;;;;;;;;;;;;;27.80;24.78;101021.84;5038539;28;765;-41
2020/12/07 05:53:51;;;;;;;;;;;;;;;27.70;25.03;101014.84;5055941;28;839;-32
2020/12/07 05:56:16;;;;;;;;;;;;;;;28.01;24.66;101018.47;5055516;28;948;-32
2020/12/07 05:59:01;;;;;;;;;;;;;;;28.17;24.54;101014.78;5056523;28;812;-32
2020/12/07 06:01:27;;;;;;;;;;;;;;;28.26;24.03;101015.53;5044871;28;1343;-40
2020/12/07 06:03:53;;;;;;;;;;;;;;;27.78;24.93;101013.13;5055318;28;1953;-30
2020/12/07 06:06:21;;;;;;;;;;;;;;;27.30;25.83;101016.75;5055992;28;741;-34
2020/12/07 06:08:46;;;;;;;;;;;;;;;27.89;24.82;101015.38;5040301;28;968;-41
2020/12/07 06:11:11;;;;;;;;;;;;;;;27.84;25.00;101005.09;5041387;28;951;-41
2020/12/07 06:13:37;;;;;;;;;;;;;;;27.61;25.21;100995.09;5059786;28;799;-28
2020/12/07 06:16:05;;;;;;;;;;;;;;;27.99;24.80;100996.19;5041354;28;1499;-29
2020/12/07 06:18:31;;;;;;;;;;;;;;;27.98;24.90;101002.59;5059066;28;1238;-28
2020/12/07 06:21:03;;;;;;;;;;;;;;;28.52;24.00;100997.22;5059625;28;712;-30
2020/12/07 06:23:29;;;;;;;;;;;;;;;27.46;25.58;100988.81;5040909;28;867;-40
2020/12/07 06:25:57;;;;;;;;;;;;;;;27.43;25.74;100991.84;5069434;28;1914;-37
2020/12/07 06:28:25;;;;;;;;;;;;;;;27.56;25.61;100988.59;5061499;28;1279;-26
2020/12/07 06:30:51;;;;;;;;;;;;;;;28.06;24.89;100993.59;5079053;28;977;-31
2020/12/07 06:33:16;;;;;;;;;;;;;;;28.17;24.55;100995.00;5079334;28;811;-31
2020/12/07 06:35:42;;;;;;;;;;;;;;;28.13;24.73;100991.00;5079481;28;816;-29
2020/12/07 06:38:07;;;;;;;;;;;;;;;28.04;24.65;100998.34;5079197;28;833;-39
2020/12/07 06:40:32;;;;;;;;;;;;;;;27.97;24.58;101007.19;5071787;28;1009;-39
2020/12/07 06:42:58;;;;;;;;;;;;;;;27.30;25.80;101017.63;5041423;28;756;-32
2020/12/07 06:45:32;;;;;;;;;;;;;;;27.11;26.21;101035.09;5040684;28;1967;-34
2020/12/07 06:48:11;;;;;;;;;;;;;;;28.02;25.01;101040.94;5059031;28;952;-40
2020/12/07 06:50:37;;;;;;;;;;;;;;;28.14;24.69;101042.22;5058535;28;765;-30
2020/12/07 06:53:11;;;;;;;;;;;;;;;28.22;24.66;101057.50;5059080;28;744;-29
2020/12/07 06:55:36;;;;;;;;;;;;;;;28.07;24.92;101055.63;5040802;28;1507;-33
2020/12/07 06:58:02;;;;;;;;;;;;;;;28.26;24.45;101066.09;5059311;28;787;-33
2020/12/07 07:00:27;;;;;;;;;;;;;;;27.69;25.29;101060.97;5059105;28;970;-26
2020/12/07 07:02:56;;;;;;;;;;;;;;;27.54;25.76;101058.16;5058851;28;744;-30
2020/12/07 07:05:24;;;;;;;;;;;;;;;27.46;26.04;101048.25;5058900;28;2023;-31
2020/12/07 07:07:49;;;;;;;;;;;;;;;28.03;24.99;101042.66;5058403;28;977;-39
2020/12/07 07:10:15;;;;;;;;;;;;;;;28.06;25.42;101042.28;5058470;28;1010;-40
2020/12/07 07:12:40;;;;;;;;;;;;;;;28.06;25.49;101056.63;5058665;28;788;-32
2020/12/07 07:15:06;;;;;;;;;;;;;;;28.16;25.01;101050.97;5058644;28;761;-40
2020/12/07 07:17:32;;;;;;;;;;;;;;;28.07;24.88;101043.94;5058037;28;1254;-35
2020/12/07 07:19:57;;;;;;;;;;;;;;;27.27;26.28;101044.97;5057750;28;752;-40
2020/12/07 07:22:23;;;;;;;;;;;;;;;27.28;26.45;101037.72;5058555;28;763;-28
2020/12/07 07:25:04;;;;;;;;;;;;;;;27.72;25.63;101031.72;5058506;28;1895;-40
2020/12/07 07:30:13;;;;;;;;;;;;;;;28.30;24.93;101041.19;5058248;28;602;-31
2020/12/07 07:32:45;;;;;;;;;;;;;;;28.47;24.90;101043.78;5058602;28;764;-31
2020/12/07 07:35:11;;;;;;;;;;;;;;;28.01;25.35;101040.09;5058102;28;882;-38
2020/12/07 07:37:37;;;;;;;;;;;;;;;27.77;25.18;101046.56;5058891;28;818;-30
2020/12/07 07:40:05;;;;;;;;;;;;;;;26.65;26.03;101042.81;5057758;28;959;-41
2020/12/07 07:42:32;;;;;;;;;;;;;;;27.32;26.02;101044.44;5058320;28;767;-29
2020/12/07 07:44:57;;;;;;;;;;;;;;;27.14;25.93;101043.69;5040588;28;1965;-32
2020/12/07 07:47:29;;;;;;;;;;;;;;;27.77;25.59;101051.97;5040169;28;1264;-36
2020/12/07 07:50:18;;;;;;;;;;;;;;;27.73;25.29;101049.63;5058025;28;858;-36
2020/12/07 07:59:19;;;;;;;;;;;;;;;27.49;24.50;101056.81;5057745;28;670;-33
2020/12/07 08:17:48;;;;;;;;;;;;;;;27.57;24.01;101052.41;5057175;28;1139;-40
2020/12/07 08:20:14;;;;;;;;;;;;;;;26.00;22.56;101045.41;5057776;28;768;-32
2020/12/07 08:22:40;;;;;;;;;;;;;;;26.51;24.47;101048.91;5057165;28;791;-32
2020/12/07 08:25:06;;;;;;;;;;;;;;;27.20;23.60;101044.84;5060633;28;1975;-40
2020/12/07 08:27:31;;;;;;;;;;;;;;;27.54;22.60;101041.94;5077299;28;743;-27
2020/12/07 08:30:01;;;;;;;;;;;;;;;27.52;21.78;101034.03;5077221;28;970;-40
2020/12/07 08:32:27;;;;;;;;;;;;;;;27.58;21.60;101033.31;5076567;28;806;-38
2020/12/07 08:34:52;;;;;;;;;;;;;;;27.66;22.31;101034.28;5058698;28;895;-33
2020/12/07 08:37:17;;;;;;;;;;;;;;;27.57;22.80;101020.81;5077155;28;822;-39
2020/12/07 08:39:43;;;;;;;;;;;;;;;27.63;23.25;101028.22;5076250;28;1030;-33
2020/12/07 08:42:08;;;;;;;;;;;;;;;27.92;22.85;101015.00;5056810;28;818;-32
2020/12/07 08:44:33;;;;;;;;;;;;;;;27.82;22.96;101012.56;5056535;28;1979;-32
2020/12/07 08:46:59;;;;;;;;;;;;;;;27.84;22.74;100999.69;5056970;28;814;-40
2020/12/07 08:49:24;;;;;;;;;;;;;;;27.44;23.76;101010.63;5056819;28;867;-31
2020/12/07 08:51:49;;;;;;;;;;;;;;;27.34;24.26;101000.00;5056968;28;863;-30
2020/12/07 08:54:15;;;;;;;;;;;;;;;27.57;23.94;100988.41;5056671;28;768;-40
2020/12/07 08:56:40;;;;;;;;;;;;;;;27.91;23.36;100985.47;5056432;28;1010;-36
2020/12/07 08:59:05;;;;;;;;;;;;;;;28.13;23.08;100988.31;5056856;28;772;-41
2020/12/07 09:01:31;;;;;;;;;;;;;;;28.42;22.68;100989.38;5056524;28;812;-47
2020/12/07 09:03:57;;;;;;;;;;;;;;;28.65;22.54;100989.28;5056652;28;760;-31
2020/12/07 09:06:22;;;;;;;;;;;;;;;27.36;24.23;100976.38;5056667;28;788;-30
2020/12/07 09:08:48;;;;;;;;;;;;;;;27.07;24.73;100977.06;5056251;28;800;-34
2020/12/07 09:11:14;;;;;;;;;;;;;;;28.03;23.54;100972.34;5056507;28;1011;-44
2020/12/07 09:13:39;;;;;;;;;;;;;;;28.15;23.49;100962.75;5056623;28;780;-31
2020/12/07 09:16:05;;;;;;;;;;;;;;;27.08;24.96;100952.59;5056122;28;768;-34
2020/12/07 09:18:30;;;;;;;;;;;;;;;26.89;25.11;100945.75;5056436;28;1321;-36
2020/12/07 09:20:55;;;;;;;;;;;;;;;27.52;24.73;100936.75;5056382;28;820;-34
2020/12/07 09:23:20;;;;;;;;;;;;;;;28.05;23.88;100935.13;5056057;28;772;-32
2020/12/07 09:25:46;;;;;;;;;;;;;;;28.60;23.25;100938.41;5056133;28;1983;-32
2020/12/07 09:28:11;;;;;;;;;;;;;;;28.55;23.28;100930.03;5056346;28;872;-39
2020/12/07 09:30:37;;;;;;;;;;;;;;;28.77;23.03;100923.81;5056501;28;816;-38
2020/12/07 09:33:02;;;;;;;;;;;;;;;28.22;23.65;100928.53;5056703;28;865;-40
2020/12/07 09:35:28;;;;;;;;;;;;;;;27.13;25.11;100933.13;5056176;28;848;-36
2020/12/07 09:37:53;;;;;;;;;;;;;;;27.55;25.01;100924.72;5056112;28;756;-37
2020/12/07 09:40:18;;;;;;;;;;;;;;;28.22;24.14;100927.69;5056344;28;1006;-37
2020/12/07 09:42:43;;;;;;;;;;;;;;;28.29;23.63;100922.38;5056087;28;519;-36
2020/12/07 09:45:09;;;;;;;;;;;;;;;28.12;22.96;100919.84;5060252;28;1909;-37
2020/12/07 09:47:34;;;;;;;;;;;;;;;28.62;23.24;100926.56;5060366;28;757;-43
2020/12/07 09:50:00;;;;;;;;;;;;;;;28.70;23.08;100919.19;5060153;28;772;-40
2020/12/07 09:52:25;;;;;;;;;;;;;;;27.36;24.72;100918.81;5060249;28;757;-33
2020/12/07 09:54:51;;;;;;;;;;;;;;;26.87;25.77;100915.38;5059924;28;996;-37
2020/12/07 09:57:16;;;;;;;;;;;;;;;28.34;23.89;100914.56;5060049;28;851;-35
2020/12/07 09:59:42;;;;;;;;;;;;;;;28.46;23.71;100923.88;5060026;28;803;-32
2020/12/07 10:02:07;;;;;;;;;;;;;;;28.49;23.67;100906.44;5060208;28;759;-36
2020/12/07 10:04:32;;;;;;;;;;;;;;;28.50;23.70;100905.38;5059855;28;1910;-36
2020/12/07 10:06:57;;;;;;;;;;;;;;;28.58;23.64;100909.84;5060021;28;748;-34
2020/12/07 10:09:23;;;;;;;;;;;;;;;27.57;24.76;100903.78;5059978;28;899;-37
2020/12/07 10:11:48;;;;;;;;;;;;;;;27.33;25.40;100900.25;5059570;28;999;-33
2020/12/07 10:14:13;;;;;;;;;;;;;;;27.96;24.37;100894.66;5059711;28;779;-32
2020/12/07 10:16:42;;;;;;;;;;;;;;;28.30;23.86;100894.28;5059523;28;819;-36
2020/12/07 10:19:08;;;;;;;;;;;;;;;28.40;23.72;100889.44;5059894;28;1076;-35
2020/12/07 10:21:33;;;;;;;;;;;;;;;28.48;23.94;100886.63;5059688;28;768;-37
2020/12/07 10:23:59;;;;;;;;;;;;;;;28.59;23.02;100887.19;5059830;28;732;-36
2020/12/07 10:26:24;;;;;;;;;;;;;;;27.49;23.13;100878.50;5059769;28;1979;-42
2020/12/07 10:28:50;;;;;;;;;;;;;;;26.84;23.34;100880.66;5059265;28;832;-33
2020/12/07 10:31:17;;;;;;;;;;;;;;;27.59;23.78;100875.53;5059756;28;784;-38
2020/12/07 10:33:43;;;;;;;;;;;;;;;28.16;22.80;100879.75;5059539;28;872;-36
2020/12/07 10:36:08;;;;;;;;;;;;;;;28.15;25.47;100880.75;5059339;28;752;-34
2020/12/07 10:38:33;;;;;;;;;;;;;;;28.25;26.41;100886.72;5058866;28;858;-32
2020/12/07 10:40:58;;;;;;;;;;;;;;;28.15;28.03;100881.59;5059218;28;1003;-33
2020/12/07 10:43:24;;;;;;;;;;;;;;;27.20;28.80;100880.09;5059209;28;847;-39
2020/12/07 10:45:49;;;;;;;;;;;;;;;25.06;28.91;100874.06;5058658;28;1902;-37
2020/12/07 10:48:14;;;;;;;;;;;;;;;23.71;30.87;100877.16;5059356;28;871;-37
2020/12/07 10:50:39;;;;;;;;;;;;;;;26.31;27.30;100871.25;5059167;28;752;-32
2020/12/07 10:53:05;;;;;;;;;;;;;;;27.37;25.88;100866.47;5059035;28;820;-31
2020/12/07 10:55:30;;;;;;;;;;;;;;;26.75;27.41;100866.38;5057651;28;1005;-36
2020/12/07 10:57:55;;;;;;;;;;;;;;;26.16;28.39;100863.06;5040717;28;790;-37
2020/12/07 11:00:21;;;;;;;;;;;;;;;26.81;27.41;100856.72;5059148;28;740;-37
2020/12/07 11:02:46;;;;;;;;;;;;;;;27.52;26.23;100866.50;5059023;28;806;-36
2020/12/07 11:05:11;;;;;;;;;;;;;;;27.91;25.61;100870.03;5058601;28;1974;-35
2020/12/07 11:07:37;;;;;;;;;;;;;;;28.26;25.17;100871.34;5058468;28;828;-31
2020/12/07 11:10:02;;;;;;;;;;;;;;;28.20;25.37;100859.41;5058520;28;1014;-37
2020/12/07 11:12:27;;;;;;;;;;;;;;;28.34;25.61;100863.97;5058711;28;799;-38
2020/12/07 11:14:53;;;;;;;;;;;;;;;27.84;26.14;100872.63;5058580;28;788;-30
2020/12/07 11:17:18;;;;;;;;;;;;;;;27.67;26.85;100868.41;5058593;28;1097;-31
2020/12/07 11:19:44;;;;;;;;;;;;;;;28.27;25.81;100863.03;5058219;28;756;-32
2020/12/07 11:22:12;;;;;;;;;;;;;;;27.87;26.26;100856.06;5058293;28;551;-31
2020/12/07 11:24:38;;;;;;;;;;;;;;;27.50;26.91;100852.34;5058504;28;1980;-36
2020/12/07 11:27:03;;;;;;;;;;;;;;;27.59;26.95;100851.22;5058160;28;1010;-31
2020/12/07 11:29:29;;;;;;;;;;;;;;;27.47;27.15;100852.72;5058356;28;860;-33
2020/12/07 11:31:54;;;;;;;;;;;;;;;27.76;26.86;100845.69;5058341;28;807;-32
2020/12/07 11:34:20;;;;;;;;;;;;;;;28.39;25.96;100851.75;5058315;28;788;-35
2020/12/07 11:36:48;;;;;;;;;;;;;;;28.52;25.45;100845.66;5058165;28;767;-31
2020/12/07 11:42:39;;;;;;;;;;;;;;;28.22;26.10;100835.72;5058343;28;952;-30
2020/12/07 11:44:39;;;;;;;;;;;;;;;27.95;26.79;100838.91;5047582;28;1961;-31
2020/12/07 11:47:07;;;;;;;;;;;;;;;28.41;26.05;100834.28;5040831;28;759;-34
2020/12/07 11:49:32;;;;;;;;;;;;;;;28.72;25.67;100835.91;5058124;28;768;-34
2020/12/07 11:52:04;;;;;;;;;;;;;;;28.77;25.69;100829.06;5057924;28;792;-35
2020/12/07 11:54:29;;;;;;;;;;;;;;;28.97;25.42;100834.72;5057878;28;717;-29
2020/12/07 11:56:54;;;;;;;;;;;;;;;29.05;25.08;100833.75;5057535;28;955;-28
2020/12/07 11:59:20;;;;;;;;;;;;;;;28.48;25.86;100839.78;5058060;28;796;-30
2020/12/07 12:01:45;;;;;;;;;;;;;;;28.19;26.25;100836.09;5057920;28;886;-33
2020/12/07 12:04:10;;;;;;;;;;;;;;;28.79;25.39;100852.22;5057809;28;1965;-35
2020/12/07 12:06:37;;;;;;;;;;;;;;;28.95;25.54;100851.13;5057266;28;784;-32
2020/12/07 12:09:04;;;;;;;;;;;;;;;29.01;25.12;100843.31;5057579;28;823;-34
2020/12/07 12:11:33;;;;;;;;;;;;;;;29.10;25.14;100831.28;5057429;28;1018;-36
2020/12/07 12:13:58;;;;;;;;;;;;;;;29.24;24.78;100842.25;5057426;28;752;-36
2020/12/07 12:16:24;;;;;;;;;;;;;;;28.70;25.39;100839.81;5056386;28;744;-35
2020/12/07 12:18:56;;;;;;;;;;;;;;;28.20;26.05;100841.31;5056679;28;1071;-36
2020/12/07 12:21:22;;;;;;;;;;;;;;;28.69;25.75;100849.84;5056784;28;843;-33
2020/12/07 12:23:48;;;;;;;;;;;;;;;28.94;25.37;100844.06;5057582;28;816;-35
2020/12/07 12:26:13;;;;;;;;;;;;;;;28.99;25.04;100840.78;5057205;28;1910;-36
2020/12/07 12:28:39;;;;;;;;;;;;;;;29.22;24.79;100839.75;5056729;28;765;-33
2020/12/07 12:31:04;;;;;;;;;;;;;;;29.23;24.69;100846.00;5057242;28;807;-34
2020/12/07 12:33:30;;;;;;;;;;;;;;;29.06;24.79;100851.69;5057570;28;756;-35
2020/12/07 12:35:55;;;;;;;;;;;;;;;27.85;25.11;100846.44;5056536;28;708;-37
2020/12/07 12:38:20;;;;;;;;;;;;;;;28.34;25.63;100855.03;5057304;28;804;-35
2020/12/07 12:40:46;;;;;;;;;;;;;;;28.79;25.19;100854.94;5056780;28;948;-33
2020/12/07 12:43:11;;;;;;;;;;;;;;;29.00;25.09;100844.31;5056828;28;820;-36
2020/12/07 12:45:36;;;;;;;;;;;;;;;28.97;24.70;100842.84;5056943;28;1901;-32
2020/12/07 12:48:01;;;;;;;;;;;;;;;28.88;25.00;100847.50;5056910;28;733;-34
2020/12/07 12:50:27;;;;;;;;;;;;;;;28.97;24.54;100850.97;5056731;28;752;-36
2020/12/07 12:52:52;;;;;;;;;;;;;;;28.52;25.50;100849.22;5057156;28;804;-36
2020/12/07 12:55:17;;;;;;;;;;;;;;;27.93;26.58;100846.34;5056374;28;900;-34
2020/12/07 12:57:44;;;;;;;;;;;;;;;28.82;25.24;100851.00;5056670;28;756;-33
2020/12/07 13:00:10;;;;;;;;;;;;;;;29.17;24.58;100855.72;5056490;28;785;-36
2020/12/07 13:02:35;;;;;;;;;;;;;;;29.16;24.72;100849.47;5056504;28;768;-35
2020/12/07 13:05:00;;;;;;;;;;;;;;;29.11;24.85;100833.00;5056299;28;1905;-37
2020/12/07 13:07:26;;;;;;;;;;;;;;;29.26;24.39;100845.59;5056599;28;794;-37
2020/12/07 13:09:51;;;;;;;;;;;;;;;28.87;24.99;100843.13;5055849;28;1022;-29
2020/12/07 13:12:16;;;;;;;;;;;;;;;28.40;25.69;100854.28;5056263;28;771;-33
2020/12/07 13:14:42;;;;;;;;;;;;;;;28.71;25.57;100850.47;5056467;28;795;-37
2020/12/07 13:17:12;;;;;;;;;;;;;;;29.15;24.84;100853.22;5056040;28;1217;-36